Abbot, ME

4:16 AM EST on November 24, 2014 (GMT -0500)
Greeley's Landing | Change Station
CLOSE
Current Station
Personal Weather Station
Location: Dover-Foxcroft, ME
Elevation: 315 ft
Nearby Weather Stations

Elev 315 ft 45.25 °N, 69.24 °W | Updated 6 minutes ago

Overcast
Overcast
31.1 °F
Feels Like 31 °F
N
0.0
Wind Variable Wind from South

Today
High -- | Low -- °F
--% Chance of Precip.
Yesterday
High -- | Low -- °F
Precip. -- in
6:48 AM 4:00 PM
Waxing Crescent, 4% visible
Pressure 30.10 in
Visibility 6.0 miles
Clouds Few 5000 ft
Overcast 10000 ft
Windchill 31 °F
Dew Point 31 °F
Humidity 99%
Rainfall 0.00 in
Snow Depth Not available.
UV 0 out of 12
Pollen .10 out of 12
Air Quality Not available.
Flu Activity Not available.
METAR KMLT 240853Z AUTO 00000KT 6SM BR FEW050 OVC100 01/00 A3007 RMK AO2 SLP192 T00110000 58015

More Conditions Fewer Conditions

Pressure 30.10 in
Visibility 6.0 miles
Clouds Few 5000 ft
Overcast 10000 ft
Windchill 31 °F
Dew Point 31 °F
Humidity 99%
Rainfall 0.00 in
Snow Depth Not available.
UV 0 out of 12
Pollen .10 out of 12
Air Quality Not available.
Flu Activity Not available.
METAR KMLT 240853Z AUTO 00000KT 6SM BR FEW050 OVC100 01/00 A3007 RMK AO2 SLP192 T00110000 58015

More Conditions Fewer Conditions

10-Day Weather Forecast

Almanac

Astronomy

Nov. 24, 2014 Rise Set
Actual Time
Civil Twilight
Nautical Twilight
Astronomical Twilight
Moon
Length of Visible Light
Length of Day
Tomorrow will be .
, % of the Moon is Illuminated

Today's Extremes

State Highs State Lows

Community

WunderPhotos

Upload Photos

1,773,294 photos uploaded!

WunderBlogs® & News

Nearby

Air Quality

  Air Quality AQ Index Pollutant
Not available.

Snow Depth

Station Depth Elevation

Earthquake Activity

City Distance Mag. Time & Date
Minimum magnitude displayed is 2.5.

Coastal Water Temperatures

Place Temperature

Nearby Weather Stations